createdAt,value
2019-03-28T00:00:18.085Z,81.90
2019-03-28T00:02:46.488Z,82.70
2019-03-28T00:05:14.772Z,82.20
2019-03-28T00:07:43.844Z,82.70
2019-03-28T00:10:12.166Z,80.20
2019-03-28T00:12:40.461Z,78.10
2019-03-28T00:15:08.846Z,80.90
2019-03-28T00:17:37.336Z,81.20
2019-03-28T00:20:06.334Z,81.90
2019-03-28T00:22:36.489Z,81.40
2019-03-28T00:25:07.162Z,81.50
2019-03-28T00:27:35.579Z,82.00
2019-03-28T00:30:06.171Z,82.10
2019-03-28T00:32:34.518Z,82.60
2019-03-28T00:35:03.038Z,83.80
2019-03-28T00:37:31.495Z,83.10
2019-03-28T00:39:59.775Z,83.30
2019-03-28T00:42:28.194Z,83.20
2019-03-28T00:44:56.942Z,82.70
2019-03-28T00:47:25.347Z,82.70
2019-03-28T00:49:53.789Z,82.50
2019-03-28T00:52:22.184Z,83.70
2019-03-28T00:54:50.680Z,82.80
2019-03-28T00:57:19.275Z,81.90
2019-03-28T00:59:47.742Z,83.10
2019-03-28T01:02:16.134Z,82.90
2019-03-28T01:04:44.832Z,84.20
2019-03-28T01:07:13.318Z,84.70
2019-03-28T01:09:42.563Z,85.30
2019-03-28T01:12:10.946Z,85.30
2019-03-28T01:14:39.701Z,85.90
2019-03-28T01:17:08.173Z,85.40
2019-03-28T01:19:36.445Z,86.30
2019-03-28T01:22:04.908Z,86.20
2019-03-28T01:24:33.354Z,86.30
2019-03-28T01:27:01.653Z,87.60
2019-03-28T01:29:30.343Z,87.10
2019-03-28T01:31:58.638Z,88.40
2019-03-28T01:34:27.038Z,88.50
2019-03-28T01:36:55.418Z,89.70
2019-03-28T01:39:23.696Z,89.40
2019-03-28T01:41:52.011Z,89.30
2019-03-28T01:44:20.459Z,90.30
2019-03-28T01:46:48.870Z,90.40
2019-03-28T01:49:17.586Z,89.90
2019-03-28T01:51:46.156Z,90.20
2019-03-28T01:54:14.413Z,90.30
2019-03-28T01:56:42.825Z,90.50
2019-03-28T01:59:11.181Z,91.00
2019-03-28T02:01:39.523Z,90.60
2019-03-28T02:04:07.782Z,90.80
2019-03-28T02:06:36.276Z,91.20
2019-03-28T02:09:06.217Z,90.90
2019-03-28T02:11:34.936Z,91.00
2019-03-28T02:14:03.336Z,90.90
2019-03-28T02:16:31.606Z,91.10
2019-03-28T02:19:00.270Z,91.20
2019-03-28T02:21:28.702Z,90.90
2019-03-28T02:23:57.123Z,90.70
2019-03-28T02:26:25.680Z,91.30
2019-03-28T02:28:54.113Z,91.20
2019-03-28T02:31:22.390Z,90.80
2019-03-28T02:33:50.687Z,90.90
2019-03-28T02:36:19.175Z,91.40
2019-03-28T02:38:47.673Z,91.70
2019-03-28T02:41:16.163Z,91.80
2019-03-28T02:43:45.529Z,92.00
2019-03-28T02:46:13.913Z,91.50
2019-03-28T02:48:42.212Z,91.70
2019-03-28T02:51:10.543Z,91.60
2019-03-28T02:53:39.629Z,91.30
2019-03-28T02:56:08.298Z,92.50
2019-03-28T02:58:36.921Z,93.10
2019-03-28T03:01:05.431Z,93.00
2019-03-28T03:03:33.904Z,93.10
2019-03-28T03:06:02.234Z,93.10
2019-03-28T03:08:30.480Z,93.20
2019-03-28T03:10:58.780Z,93.60
2019-03-28T03:13:28.152Z,93.20
2019-03-28T03:15:56.943Z,93.60
2019-03-28T03:18:25.997Z,93.80
2019-03-28T03:20:54.757Z,93.40
2019-03-28T03:23:23.374Z,93.50
2019-03-28T03:25:52.003Z,93.80
2019-03-28T03:28:20.471Z,94.20
2019-03-28T03:30:48.870Z,94.10
2019-03-28T03:33:17.820Z,94.30
2019-03-28T03:35:46.617Z,94.60
2019-03-28T03:38:15.078Z,94.60
2019-03-28T03:40:43.480Z,94.50
2019-03-28T03:43:12.219Z,94.00
2019-03-28T03:45:40.698Z,93.60
2019-03-28T03:48:09.319Z,93.80
2019-03-28T03:50:37.982Z,94.10
2019-03-28T03:53:07.505Z,94.60
2019-03-28T03:55:35.919Z,94.90
2019-03-28T03:58:15.244Z,93.90
2019-03-28T04:00:35.789Z,93.80
2019-03-28T04:03:04.437Z,94.00
2019-03-28T04:05:33.066Z,94.30
2019-03-28T04:08:01.449Z,94.30
2019-03-28T04:10:30.063Z,94.40
2019-03-28T04:12:58.509Z,94.50
2019-03-28T04:15:27.883Z,94.70
2019-03-28T04:17:56.368Z,94.70
2019-03-28T04:20:25.328Z,94.80
2019-03-28T04:22:54.000Z,95.00
2019-03-28T04:25:22.472Z,95.10
2019-03-28T04:27:51.058Z,95.20
2019-03-28T04:30:19.590Z,95.20
2019-03-28T04:32:48.016Z,95.20
2019-03-28T04:35:16.763Z,95.10
2019-03-28T04:37:45.609Z,95.10
2019-03-28T04:40:14.163Z,95.20
2019-03-28T04:42:45.582Z,95.20
2019-03-28T04:45:12.955Z,95.20
2019-03-28T04:47:44.344Z,94.90
2019-03-28T04:50:12.818Z,95.10
2019-03-28T04:52:41.174Z,95.10
2019-03-28T04:55:09.917Z,95.20
2019-03-28T04:57:40.931Z,95.00
2019-03-28T05:00:08.580Z,95.00
2019-03-28T05:02:37.129Z,94.90
2019-03-28T05:05:06.931Z,95.10
2019-03-28T05:07:35.430Z,95.20
2019-03-28T05:10:06.241Z,94.90
2019-03-28T05:12:37.477Z,94.90
2019-03-28T05:15:11.847Z,95.10
2019-03-28T05:17:40.571Z,95.30
2019-03-28T05:20:12.805Z,95.20
2019-03-28T05:22:40.069Z,95.20
2019-03-28T05:25:08.594Z,95.30
2019-03-28T05:27:37.340Z,95.20
2019-03-28T05:30:08.907Z,95.10
2019-03-28T05:32:37.477Z,95.30
2019-03-28T05:35:06.840Z,95.30
2019-03-28T05:37:35.234Z,95.40
2019-03-28T05:40:07.316Z,95.60
2019-03-28T05:42:35.943Z,95.50
2019-03-28T05:45:11.611Z,95.60
2019-03-28T05:47:40.220Z,95.60
2019-03-28T05:50:08.640Z,94.70
2019-03-28T05:52:37.138Z,94.30
2019-03-28T05:55:06.737Z,94.20
2019-03-28T05:57:35.208Z,94.10
2019-03-28T06:00:04.471Z,94.40
2019-03-28T06:02:33.432Z,94.30
2019-03-28T06:05:01.859Z,94.50
2019-03-28T06:07:30.293Z,94.00
2019-03-28T06:09:59.041Z,93.90
2019-03-28T06:12:27.428Z,93.70
2019-03-28T06:14:56.911Z,93.90
2019-03-28T06:17:25.320Z,93.60
2019-03-28T06:19:54.485Z,93.80
2019-03-28T06:22:22.945Z,93.50
2019-03-28T06:24:54.490Z,93.30
2019-03-28T06:27:23.012Z,93.80
2019-03-28T06:29:57.475Z,93.30
2019-03-28T06:32:25.870Z,93.30
2019-03-28T06:34:54.292Z,93.30
2019-03-28T06:37:22.788Z,93.50
2019-03-28T06:39:51.308Z,92.90
2019-03-28T06:42:19.828Z,92.50
2019-03-28T06:44:48.243Z,91.80
2019-03-28T06:47:16.669Z,91.00
2019-03-28T06:49:45.136Z,90.70
2019-03-28T06:52:13.718Z,89.30
2019-03-28T06:54:42.180Z,86.20
2019-03-28T06:57:10.592Z,85.70
2019-03-28T06:59:39.190Z,86.40
2019-03-28T07:02:09.693Z,86.60
2019-03-28T07:04:37.817Z,87.10
2019-03-28T07:07:06.696Z,87.10
2019-03-28T07:09:35.207Z,86.40
2019-03-28T07:12:03.851Z,86.40
2019-03-28T07:14:32.475Z,87.50
2019-03-28T07:17:01.233Z,88.60
2019-03-28T07:19:29.879Z,89.90
2019-03-28T07:21:59.103Z,90.00
2019-03-28T07:24:27.699Z,90.70
2019-03-28T07:26:56.268Z,89.10
2019-03-28T07:29:25.455Z,88.20
2019-03-28T07:31:54.231Z,88.80
2019-03-28T07:34:22.813Z,89.30
2019-03-28T07:36:51.403Z,90.10
2019-03-28T07:39:19.842Z,89.40
2019-03-28T07:41:48.320Z,86.90
2019-03-28T07:44:17.128Z,86.10
2019-03-28T07:46:47.745Z,87.30
2019-03-28T07:49:16.554Z,85.10
2019-03-28T07:51:45.101Z,84.60
2019-03-28T07:54:13.621Z,85.30
2019-03-28T07:56:42.095Z,88.50
2019-03-28T07:59:10.555Z,87.30
2019-03-28T08:01:39.088Z,87.50
2019-03-28T08:04:07.647Z,88.20
2019-03-28T08:06:48.851Z,87.60
2019-03-28T08:09:07.552Z,85.20
2019-03-28T08:11:35.978Z,86.20
2019-03-28T08:14:04.723Z,85.40
2019-03-28T08:16:33.119Z,85.30
2019-03-28T08:19:01.532Z,86.80
2019-03-28T08:21:29.946Z,87.00
2019-03-28T08:23:59.158Z,87.00
2019-03-28T08:26:30.091Z,87.10
2019-03-28T08:28:56.972Z,87.60
2019-03-28T08:31:25.379Z,86.90
2019-03-28T08:33:53.776Z,88.00
2019-03-28T08:36:22.194Z,88.00
2019-03-28T08:38:50.661Z,87.50
2019-03-28T08:41:19.657Z,87.30
2019-03-28T08:43:48.193Z,88.10
2019-03-28T08:46:16.599Z,88.60
2019-03-28T08:48:45.022Z,87.60
2019-03-28T08:51:13.441Z,88.90
2019-03-28T08:53:41.894Z,90.20
2019-03-28T08:56:10.383Z,89.80
2019-03-28T08:58:38.833Z,88.40
2019-03-28T09:03:53.959Z,87.80
2019-03-28T09:06:22.431Z,86.40
2019-03-28T09:08:50.840Z,88.10
2019-03-28T09:11:21.459Z,87.70
2019-03-28T09:16:53.134Z,88.60
2019-03-28T09:22:08.046Z,86.00
2019-03-28T09:24:36.537Z,88.00
2019-03-28T09:27:05.075Z,88.70
2019-03-28T09:29:33.794Z,88.20
2019-03-28T09:32:02.293Z,88.50
2019-03-28T09:34:30.655Z,89.50
2019-03-28T09:36:59.254Z,89.90
2019-03-28T09:39:27.759Z,88.10
2019-03-28T09:41:56.336Z,87.80
2019-03-28T09:44:24.909Z,88.80
2019-03-28T09:46:53.266Z,87.00
2019-03-28T09:49:21.683Z,88.00
2019-03-28T09:51:52.611Z,86.50
2019-03-28T09:54:21.203Z,84.80
2019-03-28T09:56:49.694Z,86.70
2019-03-28T09:59:18.044Z,83.80
2019-03-28T10:01:46.558Z,83.40
2019-03-28T10:04:14.981Z,85.20
2019-03-28T10:06:45.027Z,85.30
2019-03-28T10:09:18.441Z,85.20
2019-03-28T10:11:49.151Z,86.70
2019-03-28T10:14:17.537Z,87.10
2019-03-28T10:16:45.893Z,89.20
2019-03-28T10:19:14.264Z,90.10
2019-03-28T10:21:42.570Z,90.20
2019-03-28T10:24:11.635Z,89.70
2019-03-28T10:26:40.348Z,88.80
2019-03-28T10:29:08.742Z,87.60
2019-03-28T10:31:37.105Z,87.60
2019-03-28T10:34:05.632Z,89.20
2019-03-28T10:36:33.952Z,88.60
2019-03-28T10:39:02.472Z,86.50
2019-03-28T10:41:31.044Z,85.20
2019-03-28T10:44:02.354Z,83.40
2019-03-28T10:46:30.804Z,78.00
2019-03-28T10:48:59.341Z,76.80
2019-03-28T10:51:27.834Z,79.00
2019-03-28T10:53:56.059Z,77.90
2019-03-28T10:56:24.634Z,79.30
2019-03-28T10:58:53.234Z,79.10
2019-03-28T11:01:41.565Z,77.70
2019-03-28T11:03:53.652Z,80.00
2019-03-28T11:06:22.516Z,78.80
2019-03-28T11:08:52.949Z,79.80
2019-03-28T11:11:22.492Z,78.70
2019-03-28T11:13:51.102Z,79.20
2019-03-28T11:16:19.387Z,78.60
2019-03-28T11:18:48.246Z,80.30
2019-03-28T11:21:16.737Z,81.10
2019-03-28T11:23:45.154Z,81.10
2019-03-28T11:26:13.771Z,82.80
2019-03-28T11:28:42.370Z,83.20
2019-03-28T11:31:10.882Z,83.30
2019-03-28T11:33:39.403Z,84.70
2019-03-28T11:36:07.782Z,84.10
2019-03-28T11:38:36.299Z,84.90
2019-03-28T11:41:06.492Z,85.30
2019-03-28T11:43:35.012Z,85.70
2019-03-28T11:46:06.046Z,85.30
2019-03-28T11:48:36.239Z,84.20
2019-03-28T11:51:04.866Z,85.90
2019-03-28T11:53:33.308Z,85.70
2019-03-28T11:56:01.729Z,85.70
2019-03-28T11:58:30.067Z,85.50
2019-03-28T12:00:58.345Z,85.00
2019-03-28T12:03:28.269Z,85.50
2019-03-28T12:06:10.887Z,85.50
2019-03-28T12:08:39.676Z,84.80
2019-03-28T12:11:16.289Z,83.40
2019-03-28T12:13:45.375Z,83.10
2019-03-28T12:16:13.748Z,83.40
2019-03-28T12:18:43.861Z,84.00
2019-03-28T12:21:12.512Z,82.40
2019-03-28T12:23:43.246Z,83.00
2019-03-28T12:26:13.927Z,83.20
2019-03-28T12:28:55.427Z,83.70
2019-03-28T12:31:23.720Z,84.10
2019-03-28T12:33:53.716Z,80.60
2019-03-28T12:36:21.448Z,80.90
2019-03-28T12:38:50.373Z,80.10
2019-03-28T12:41:21.632Z,82.50
2019-03-28T12:43:50.259Z,81.70
2019-03-28T12:46:18.580Z,83.60
2019-03-28T12:48:47.096Z,83.30
2019-03-28T12:51:15.510Z,82.90
2019-03-28T12:53:45.304Z,83.80
2019-03-28T12:56:13.879Z,83.10
2019-03-28T12:58:42.244Z,85.40
2019-03-28T13:01:10.935Z,85.40
2019-03-28T13:03:45.814Z,84.80
2019-03-28T13:06:16.197Z,85.00
2019-03-28T13:08:40.254Z,86.60
2019-03-28T13:11:08.609Z,87.50
2019-03-28T13:13:37.378Z,86.90
2019-03-28T13:16:05.791Z,86.50
2019-03-28T13:18:53.190Z,87.30
2019-03-28T13:21:21.917Z,87.20
2019-03-28T13:23:50.313Z,86.50
2019-03-28T13:26:18.839Z,85.80
2019-03-28T13:28:52.617Z,85.70
2019-03-28T13:31:23.273Z,85.90
2019-03-28T13:33:50.342Z,85.10
2019-03-28T13:36:18.724Z,84.90
2019-03-28T13:38:52.928Z,84.30
2019-03-28T13:41:21.313Z,84.80
2019-03-28T13:43:49.669Z,83.50
2019-03-28T13:46:19.638Z,84.50
2019-03-28T13:48:50.660Z,83.10
2019-03-28T13:51:19.146Z,85.30
2019-03-28T13:53:47.526Z,86.40
2019-03-28T13:56:16.190Z,86.90
2019-03-28T13:58:58.928Z,86.80
2019-03-28T14:01:47.943Z,87.70
2019-03-28T14:04:16.972Z,87.50
2019-03-28T14:06:47.106Z,89.00
2019-03-28T14:09:14.741Z,90.10
2019-03-28T14:11:43.093Z,90.50
2019-03-28T14:14:11.511Z,90.60
2019-03-28T14:16:39.823Z,90.40
2019-03-28T14:19:08.116Z,90.60
2019-03-28T14:21:37.164Z,90.70
2019-03-28T14:24:05.607Z,90.60
2019-03-28T14:26:37.418Z,90.40
2019-03-28T14:29:07.051Z,90.20
2019-03-28T14:31:35.033Z,90.50
2019-03-28T14:34:03.492Z,90.30
2019-03-28T14:36:31.928Z,90.60
2019-03-28T14:39:00.283Z,90.40
2019-03-28T14:41:28.718Z,90.50
2019-03-28T14:43:57.313Z,90.20
2019-03-28T14:46:25.719Z,89.70
2019-03-28T14:48:54.247Z,89.60
2019-03-28T14:51:22.935Z,89.80
2019-03-28T14:53:53.948Z,89.40
2019-03-28T14:56:31.543Z,89.50
2019-03-28T14:58:59.860Z,88.90
2019-03-28T15:01:28.665Z,88.90
2019-03-28T15:03:56.959Z,89.40
2019-03-28T15:06:25.302Z,88.80
2019-03-28T15:08:54.024Z,89.30
2019-03-28T15:11:22.439Z,89.70
2019-03-28T15:13:51.017Z,88.20
2019-03-28T15:16:20.951Z,88.00
2019-03-28T15:18:49.444Z,87.50
2019-03-28T15:21:17.981Z,86.40
2019-03-28T15:23:46.331Z,86.00
2019-03-28T15:26:14.683Z,86.20
2019-03-28T15:28:43.219Z,85.40
2019-03-28T15:31:11.633Z,85.90
2019-03-28T15:33:40.250Z,85.70
2019-03-28T15:36:08.884Z,87.00
2019-03-28T15:38:43.281Z,86.00
2019-03-28T15:41:11.752Z,85.50
2019-03-28T15:43:40.201Z,87.20
2019-03-28T15:46:11.815Z,87.50
2019-03-28T15:48:40.935Z,88.00
2019-03-28T15:51:11.701Z,85.30
2019-03-28T15:53:39.541Z,85.90
2019-03-28T15:56:07.823Z,85.10
2019-03-28T15:58:36.225Z,85.20
2019-03-28T16:01:04.600Z,86.50
2019-03-28T16:03:33.134Z,86.90
2019-03-28T16:06:08.085Z,86.10
2019-03-28T16:08:36.358Z,87.20
2019-03-28T16:11:05.104Z,89.00
2019-03-28T16:13:33.550Z,89.50
2019-03-28T16:16:01.857Z,90.10
2019-03-28T16:18:30.173Z,90.30
2019-03-28T16:20:58.726Z,90.80
2019-03-28T16:23:27.049Z,91.10
2019-03-28T16:25:55.477Z,91.10
2019-03-28T16:28:23.839Z,91.20
2019-03-28T16:30:52.141Z,91.70
2019-03-28T16:33:20.541Z,92.00
2019-03-28T16:35:48.915Z,90.60
2019-03-28T16:38:17.419Z,90.50
2019-03-28T16:40:45.896Z,90.50
2019-03-28T16:43:14.288Z,90.00
2019-03-28T16:45:42.586Z,90.20
2019-03-28T16:48:10.953Z,90.80
2019-03-28T16:50:39.585Z,91.10
2019-03-28T16:53:07.852Z,90.60
2019-03-28T16:55:36.147Z,90.40
2019-03-28T16:58:04.385Z,90.30
2019-03-28T17:00:36.987Z,90.40
2019-03-28T17:03:05.909Z,90.60
2019-03-28T17:05:34.844Z,90.80
2019-03-28T17:08:03.318Z,91.20
2019-03-28T17:10:51.425Z,91.60
2019-03-28T17:13:24.650Z,91.30
2019-03-28T17:15:52.994Z,91.60
2019-03-28T17:18:21.392Z,92.10
2019-03-28T17:20:49.891Z,92.10
2019-03-28T17:23:18.239Z,92.00
2019-03-28T17:25:46.511Z,92.00
2019-03-28T17:28:14.958Z,92.20
2019-03-28T17:30:43.427Z,92.70
2019-03-28T17:33:11.887Z,92.70
2019-03-28T17:35:41.161Z,93.00
2019-03-28T17:38:09.603Z,93.30
2019-03-28T17:40:38.128Z,93.00
2019-03-28T17:43:07.296Z,93.40
2019-03-28T17:45:35.832Z,93.60
2019-03-28T17:48:04.321Z,93.40
2019-03-28T17:50:32.771Z,93.40
2019-03-28T17:53:01.452Z,93.40
2019-03-28T17:55:30.037Z,93.50
2019-03-28T17:57:58.387Z,93.60
2019-03-28T18:00:28.195Z,93.50
2019-03-28T18:03:08.367Z,93.60
2019-03-28T18:05:26.052Z,93.60
2019-03-28T18:07:54.366Z,93.60
2019-03-28T18:10:23.823Z,93.40
2019-03-28T18:12:52.234Z,93.40
2019-03-28T18:15:20.692Z,93.50
2019-03-28T18:17:49.026Z,93.50
2019-03-28T18:20:17.652Z,93.40
2019-03-28T18:22:46.022Z,93.20
2019-03-28T18:25:14.448Z,93.50
2019-03-28T18:27:43.215Z,93.30
2019-03-28T18:30:12.202Z,93.50
2019-03-28T18:32:40.584Z,93.50
2019-03-28T18:35:09.036Z,93.20
2019-03-28T18:37:37.534Z,93.70
2019-03-28T18:40:06.884Z,94.00
2019-03-28T18:42:35.697Z,93.60
2019-03-28T18:45:05.621Z,93.50
2019-03-28T18:47:33.240Z,93.70
2019-03-28T18:50:03.326Z,93.90
2019-03-28T18:52:31.688Z,93.80
2019-03-28T18:55:00.367Z,93.80
2019-03-28T18:57:28.763Z,93.90
2019-03-28T18:59:57.213Z,94.80
2019-03-28T19:02:25.642Z,94.80
2019-03-28T19:04:57.034Z,93.90
2019-03-28T19:07:25.390Z,94.60
2019-03-28T19:09:53.710Z,95.00
2019-03-28T19:12:22.013Z,95.20
2019-03-28T19:14:50.438Z,95.50
2019-03-28T19:17:18.725Z,95.50
2019-03-28T19:19:47.091Z,95.50
2019-03-28T19:22:15.418Z,95.90
2019-03-28T19:24:43.880Z,96.30
2019-03-28T19:27:12.284Z,96.60
2019-03-28T19:29:40.739Z,96.60
2019-03-28T19:32:09.256Z,96.60
2019-03-28T19:34:37.541Z,96.70
2019-03-28T19:37:05.872Z,96.80
2019-03-28T19:39:34.436Z,96.90
2019-03-28T19:42:04.685Z,97.30
2019-03-28T19:44:32.971Z,97.90
2019-03-28T19:47:01.522Z,98.30
2019-03-28T19:49:30.132Z,98.80
2019-03-28T19:51:59.964Z,98.80
2019-03-28T19:54:28.742Z,98.60
2019-03-28T19:56:57.456Z,98.30
2019-03-28T19:59:26.174Z,98.20
2019-03-28T20:01:54.624Z,97.90
2019-03-28T20:04:23.056Z,97.80
2019-03-28T20:06:51.689Z,97.70
2019-03-28T20:09:19.953Z,97.20
2019-03-28T20:11:48.332Z,96.60
2019-03-28T20:14:16.704Z,96.00
2019-03-28T20:16:45.149Z,96.00
2019-03-28T20:19:13.705Z,96.30
2019-03-28T20:21:42.251Z,96.30
2019-03-28T20:24:10.650Z,96.40
2019-03-28T20:26:39.073Z,96.60
2019-03-28T20:29:08.725Z,96.40
2019-03-28T20:31:37.118Z,96.60
2019-03-28T20:34:05.570Z,96.60
2019-03-28T20:36:38.639Z,96.60
2019-03-28T20:39:06.301Z,96.70
2019-03-28T20:41:35.662Z,97.10
2019-03-28T20:44:03.973Z,97.10
2019-03-28T20:46:32.255Z,97.00
2019-03-28T20:49:00.592Z,97.00
2019-03-28T20:51:28.940Z,97.20
2019-03-28T20:53:57.218Z,97.40
2019-03-28T20:56:25.834Z,97.50
2019-03-28T20:58:55.025Z,97.00
2019-03-28T21:01:25.550Z,96.90
2019-03-28T21:03:53.898Z,96.70
2019-03-28T21:06:22.801Z,96.90
2019-03-28T21:08:51.183Z,96.80
2019-03-28T21:11:20.426Z,97.00
2019-03-28T21:13:48.959Z,97.20
2019-03-28T21:16:17.315Z,97.60
2019-03-28T21:18:45.792Z,97.20
2019-03-28T21:21:14.257Z,97.40
2019-03-28T21:23:42.600Z,97.00
2019-03-28T21:26:10.979Z,97.20
2019-03-28T21:28:46.955Z,97.70
2019-03-28T21:31:11.121Z,98.50
2019-03-28T21:33:40.099Z,98.50
2019-03-28T21:36:08.646Z,97.90
2019-03-28T21:38:37.145Z,98.00
2019-03-28T21:41:05.600Z,98.50
2019-03-28T21:43:33.952Z,98.60
2019-03-28T21:46:02.381Z,99.10
2019-03-28T21:48:33.879Z,98.10
2019-03-28T21:51:03.803Z,97.40
2019-03-28T21:53:32.331Z,96.60
2019-03-28T21:56:01.460Z,96.40
2019-03-28T21:58:30.639Z,96.50
2019-03-28T22:00:59.147Z,96.40
2019-03-28T22:03:27.794Z,96.30
2019-03-28T22:05:56.959Z,96.70
2019-03-28T22:08:26.090Z,97.10
2019-03-28T22:10:54.728Z,97.10
2019-03-28T22:13:23.165Z,97.60
2019-03-28T22:15:51.459Z,97.90
2019-03-28T22:18:20.132Z,98.70
2019-03-28T22:20:48.602Z,98.90
2019-03-28T22:23:17.027Z,98.30
2019-03-28T22:25:45.392Z,98.30
2019-03-28T22:28:13.861Z,98.20
2019-03-28T22:30:42.220Z,98.20
2019-03-28T22:33:10.568Z,98.40
2019-03-28T22:35:39.147Z,98.40
2019-03-28T22:38:07.396Z,98.70
2019-03-28T22:40:35.923Z,99.00
2019-03-28T22:43:04.295Z,99.40
2019-03-28T22:45:33.546Z,99.50
2019-03-28T22:48:10.570Z,98.80
2019-03-28T22:50:31.981Z,99.00
2019-03-28T22:53:00.236Z,99.00
2019-03-28T22:55:28.923Z,99.30
2019-03-28T22:57:57.243Z,99.30
2019-03-28T23:00:45.147Z,99.30
2019-03-28T23:03:14.435Z,99.10
2019-03-28T23:05:42.730Z,98.80
2019-03-28T23:08:11.092Z,98.50
2019-03-28T23:10:39.727Z,98.70
2019-03-28T23:13:08.013Z,98.80
2019-03-28T23:15:37.127Z,98.50
2019-03-28T23:18:05.998Z,98.50
2019-03-28T23:20:34.397Z,98.80
2019-03-28T23:23:02.707Z,99.20
2019-03-28T23:25:31.094Z,99.20
2019-03-28T23:28:02.935Z,99.00
2019-03-28T23:30:31.270Z,98.60
2019-03-28T23:32:59.935Z,98.30
2019-03-28T23:35:28.770Z,98.40
2019-03-28T23:37:57.398Z,98.50
2019-03-28T23:40:26.513Z,98.80
2019-03-28T23:42:56.619Z,98.80
2019-03-28T23:45:24.375Z,98.40
2019-03-28T23:47:53.704Z,98.30
2019-03-28T23:50:24.356Z,98.20
2019-03-28T23:52:52.950Z,98.10
2019-03-28T23:55:21.273Z,98.10
2019-03-28T23:57:49.894Z,98.30
